Flight Track Log - Related Links

Times and Time Zones

All times are in EDT time to prevent confusion due to time zone crossing. See the IBE3329 flight status page for this flight to view local times or setup timezone preferences in your user account.

Time Position Orientation Groundspeed Altitude Reporting Facility
EDT Latitude Longitude Course Direction KTS MPH feet Rate Location/Type
Sun 07:41:00 PM 23.2225 -13.6505 23° Northeast  Level Estimated
Sun 07:42:00 PM 23.3431 -13.5925 24° Northeast  Level Estimated
Sun 07:43:00 PM 23.4636 -13.5344 24° Northeast  Level Estimated
Sun 07:44:00 PM 23.5841 -13.4762 24° Northeast  Level Estimated
Sun 07:45:00 PM 23.7046 -13.4179 24° Northeast  Level Estimated
Sun 07:46:00 PM 23.8251 -13.3595 24° Northeast  Level Estimated
Sun 07:47:00 PM 23.9455 -13.3010 24° Northeast  Level Estimated
Sun 07:48:00 PM 24.0660 -13.2423 24° Northeast  Level Estimated
Sun 07:49:00 PM 24.1863 -13.1836 24° Northeast  Level Estimated
Sun 07:50:00 PM 24.3067 -13.1248 24° Northeast  Level Estimated
Sun 07:51:00 PM 24.4271 -13.0658 24° Northeast  Level Estimated
Sun 07:52:00 PM 24.5474 -13.0067 24° Northeast  Level Estimated
Sun 07:53:00 PM 24.6677 -12.9475 24° Northeast  Level Estimated
Sun 07:54:00 PM 24.7880 -12.8882 24° Northeast  Level Estimated
Sun 07:55:00 PM 24.9083 -12.8288 24° Northeast  Level Estimated
Sun 07:56:00 PM 25.0285 -12.7693 24° Northeast  Level Estimated
Sun 07:57:00 PM 25.1487 -12.7096 24° Northeast  Level Estimated
Sun 07:58:00 PM 25.2689 -12.6499 24° Northeast  Level Estimated
Sun 07:59:00 PM 25.3890 -12.5900 24° Northeast  Level Estimated
Sun 08:00:00 PM 25.5092 -12.5300 24° Northeast  Level Estimated
Sun 08:01:00 PM 25.6293 -12.4698 24° Northeast  Level Estimated
Sun 08:02:00 PM 25.7494 -12.4096 24° Northeast  Level Estimated
Sun 08:03:00 PM 25.8695 -12.3492 24° Northeast  Level Estimated
Sun 08:04:00 PM 25.9895 -12.2887 24° Northeast  Level Estimated
Sun 08:05:00 PM 26.1095 -12.2281 24° Northeast  Level Estimated
Sun 08:06:00 PM 26.2295 -12.1674 24° Northeast  Level Estimated
Sun 08:07:00 PM 26.3495 -12.1065 24° Northeast  Level Estimated
Sun 08:08:00 PM 26.4694 -12.0455 24° Northeast  Level Estimated
Sun 08:09:00 PM 26.5893 -11.9844 25° Northeast  Level Estimated
Sun 08:10:00 PM 26.7092 -11.9232 25° Northeast  Level Estimated
Sun 08:11:00 PM 26.8291 -11.8618 25° Northeast  Level Estimated
Sun 08:12:00 PM 26.9489 -11.8003 25° Northeast  Level Estimated
Sun 08:13:00 PM 27.0687 -11.7386 25° Northeast  Level Estimated
Sun 08:14:00 PM 27.1885 -11.6769 25° Northeast  Level Estimated
Sun 08:15:00 PM 27.3082 -11.6150 25° Northeast  Level Estimated
Sun 08:16:00 PM 27.4280 -11.5529 25° Northeast  Level Estimated
Sun 08:17:00 PM 27.5477 -11.4908 25° Northeast  Level Estimated
Sun 08:18:00 PM 27.6673 -11.4284 25° Northeast  Level Estimated
Sun 08:19:00 PM 27.7870 -11.3660 25° Northeast  Level Estimated
Sun 08:20:00 PM 27.9066 -11.3034 25° Northeast  Level Estimated
Sun 08:21:00 PM 28.0262 -11.2407 25° Northeast  Level Estimated
Sun 08:22:00 PM 28.1457 -11.1778 25° Northeast  Level Estimated
Sun 08:23:00 PM 28.2653 -11.1149 25° Northeast  Level Estimated
Sun 08:24:00 PM 28.3848 -11.0517 25° Northeast  Level Estimated
Sun 08:25:00 PM 28.5042 -10.9884 25° Northeast  Level Estimated
Sun 08:26:00 PM 28.6237 -10.9250 25° Northeast  Level Estimated
Sun 08:27:00 PM 28.7431 -10.8614 25° Northeast  Level Estimated
Sun 08:28:00 PM 28.8625 -10.7977 25° Northeast  Level Estimated
Sun 08:29:00 PM 28.9818 -10.7338 25° Northeast  Level Estimated
Sun 08:30:00 PM 29.1011 -10.6698 25° Northeast  Level Estimated
Sun 08:31:00 PM 29.2204 -10.6057 25° Northeast  Level Estimated
Sun 08:32:00 PM 29.3397 -10.5414 25° Northeast  Level Estimated
Sun 08:33:00 PM 29.4589 -10.4769 25° Northeast  Level Estimated
Sun 08:34:00 PM 29.5781 -10.4123 25° Northeast  Level Estimated
Sun 08:35:00 PM 29.6973 -10.3475 25° Northeast  Level Estimated
Sun 08:36:00 PM 29.8164 -10.2826 25° Northeast  Level Estimated
Sun 08:37:00 PM 29.9355 -10.2176 25° Northeast  Level Estimated
Sun 08:38:00 PM 30.0546 -10.1523 25° Northeast  Level Estimated
Sun 08:39:00 PM 30.1736 -10.0869 25° Northeast  Level Estimated
Sun 08:40:00 PM 30.2927 -10.0214 25° Northeast  Level Estimated
Sun 08:41:00 PM 30.4116 -9.9557 25° Northeast  Level Estimated
Sun 08:42:00 PM 30.5306 -9.8898 25° Northeast  Level Estimated
Sun 08:43:00 PM 30.6495 -9.8238 26° Northeast  Level Estimated
Sun 08:44:00 PM 30.7683 -9.7576 26° Northeast  Level Estimated
Sun 08:45:00 PM 30.8872 -9.6913 26° Northeast  Level Estimated
Sun 08:46:00 PM 31.0060 -9.6248 26° Northeast  Level Estimated
Sun 08:47:00 PM 31.1248 -9.5581 26° Northeast  Level Estimated
Sun 08:48:00 PM 31.2435 -9.4912 26° Northeast  Level Estimated
Sun 08:49:00 PM 31.3622 -9.4242 26° Northeast  Level Estimated
Sun 08:50:00 PM 31.4809 -9.3570 26° Northeast  Level Estimated
Sun 08:51:00 PM 31.5995 -9.2897 26° Northeast  Level Estimated
Sun 08:52:00 PM 31.7181 -9.2221 26° Northeast  Level Estimated
Sun 08:52:33 PM 32.1770 -8.3070 26° Northeast 514 592 32,000  Level FlightAware ADS-B
Sun 08:53:00 PM 31.8367 -9.1545 26° Northeast  Level Estimated
Sun 08:53:13 PM 32.2640 -8.2620 24° Northeast 510 587 32,000  Level FlightAware ADS-B
Sun 08:53:58 PM 32.3600 -8.2120 24° Northeast 503 579 32,000  Level FlightAware ADS-B
Sun 08:54:38 PM 32.4440 -8.1680 24° Northeast 498 573 32,000  Level FlightAware ADS-B
Sun 08:55:18 PM 32.5290 -8.1230 24° Northeast 496 571 32,000  Level FlightAware ADS-B
Sun 08:56:03 PM 32.6240 -8.0730 24° Northeast 495 570 32,000  Level FlightAware ADS-B
Sun 08:56:43 PM 32.7070 -8.0290 24° Northeast 497 572 32,000  Level FlightAware ADS-B
Sun 08:57:28 PM 32.8020 -7.9790 24° Northeast 496 571 32,000 71 Level FlightAware ADS-B
Sun 08:58:08 PM 32.8860 -7.9350 24° Northeast 496 571 32,100 71 Climbing FlightAware ADS-B
Sun 08:58:53 PM 32.9800 -7.8840 24° Northeast 494 568 32,100  Level FlightAware ADS-B
Sun 08:59:33 PM 33.0600 -7.8420 24° Northeast 490 564 32,100 -75 Level FlightAware ADS-B
Sun 09:00:13 PM 33.1460 -7.7960 24° Northeast 486 559 32,000 -71 Descending FlightAware ADS-B
Sun 09:00:58 PM 33.2390 -7.7460 24° Northeast 482 555 32,000  Level FlightAware ADS-B
Sun 09:01:38 PM 33.3190 -7.7040 24° Northeast 479 551 32,000  Level FlightAware ADS-B
Sun 09:02:18 PM 33.4000 -7.6600 24° Northeast 474 545 32,000  Level FlightAware ADS-B
Sun 09:02:58 PM 33.4810 -7.6170 24° Northeast 470 541 32,000  Level FlightAware ADS-B
Sun 09:03:58 PM 33.5600 -7.5740 24° Northeast 466 536 32,000  Level FlightAware ADS-B
Sun 09:04:43 PM 33.6370 -7.5330 24° Northeast 466 536 32,000  Level FlightAware ADS-B
Sun 09:05:23 PM 33.7040 -7.4970 24° Northeast 466 536 32,000  Level FlightAware ADS-B
Sun 09:06:03 PM 33.7710 -7.4610 24° Northeast 466 536 32,000  Level FlightAware ADS-B
Sun 09:06:43 PM 33.8380 -7.4250 24° Northeast 466 536 32,000  Level FlightAware ADS-B
Sun 09:07:23 PM 33.9050 -7.3890 24° Northeast 466 536 32,000  Level FlightAware ADS-B
Sun 09:08:13 PM 33.9890 -7.3440 24° Northeast 466 536 32,000  Level FlightAware ADS-B
Sun 09:08:53 PM 34.0560 -7.3080 24° Northeast 466 536 32,000  Level FlightAware ADS-B
Sun 09:09:33 PM 34.1230 -7.2720 24° Northeast 466 536 32,000  Level FlightAware ADS-B
Sun 09:10:13 PM 34.1900 -7.2360 24° Northeast 466 536 32,000  Level FlightAware ADS-B
Sun 09:10:53 PM 34.2570 -7.2000 24° Northeast 466 536 32,000  Level FlightAware ADS-B
Sun 09:11:53 PM 34.5150 -7.0530 25° Northeast 446 513 32,000  Level FlightAware ADS-B
Sun 09:12:38 PM 34.5950 -7.0090 24° Northeast 457 526 32,000 75 Level FlightAware ADS-B
Sun 09:13:13 PM 34.6660 -6.9690 25° Northeast 459 528 32,100 75 Climbing FlightAware ADS-B
Sun 09:13:58 PM 34.7570 -6.9190 24° Northeast 448 516 32,100  Level FlightAware ADS-B
Sun 09:14:43 PM 34.8400 -6.8720 25° Northeast 443 510 32,100 -71 Level FlightAware ADS-B
Sun 09:15:23 PM 34.9170 -6.8290 25° Northeast 441 507 32,000 -71 Descending FlightAware ADS-B
Sun 09:16:08 PM 35.0030 -6.7810 25° Northeast 446 513 32,000  Level FlightAware ADS-B
Sun 09:16:48 PM 35.0780 -6.7390 25° Northeast 442 509 32,000  Level FlightAware ADS-B
Sun 09:17:28 PM 35.1520 -6.6980 24° Northeast 439 505 32,000  Level FlightAware ADS-B
Sun 09:18:13 PM 35.2340 -6.6510 25° Northeast 427 491 32,000  Level FlightAware ADS-B
Sun 09:18:53 PM 35.3080 -6.6100 24° Northeast 424 488 32,000  Level FlightAware ADS-B
Sun 09:19:38 PM 35.3890 -6.5640 25° Northeast 430 495 32,000  Level FlightAware ADS-B
Sun 09:20:18 PM 35.4610 -6.5230 25° Northeast 428 493 32,000  Level FlightAware ADS-B
Sun 09:21:03 PM 35.5420 -6.4770 25° Northeast 429 494 32,000  Level FlightAware ADS-B
Sun 09:21:43 PM 35.6150 -6.4360 25° Northeast 430 495 32,000  Level FlightAware ADS-B
Sun 09:22:23 PM 35.6870 -6.3950 25° Northeast 430 495 32,000  Level FlightAware ADS-B
Sun 09:23:08 PM 35.7680 -6.3480 25° Northeast 430 495 32,000  Level FlightAware ADS-B
Sun 09:23:48 PM 35.8390 -6.3050 26° Northeast 431 496 32,000  Level FlightAware ADS-B
Sun 09:24:28 PM 35.9070 -6.2510 33° Northeast 425 489 32,000  Level FlightAware ADS-B
Sun 09:25:13 PM 35.9820 -6.1890 34° Northeast 425 489 32,000  Level FlightAware ADS-B
Sun 09:25:53 PM 36.0490 -6.1340 34° Northeast 425 489 32,000  Level FlightAware ADS-B
Sun 09:26:38 PM 36.1230 -6.0720 34° Northeast 425 489 32,000  Level FlightAware ADS-B
Sun 09:27:18 PM 36.1910 -6.0210 31° Northeast 421 484 32,000  Level FlightAware ADS-B
Sun 09:27:58 PM 36.2640 -5.9830 23° Northeast 424 488 32,000  Level FlightAware ADS-B
Sun 09:28:43 PM 36.3500 -5.9560 14° North 423 487 32,000  Level FlightAware ADS-B
Sun 09:29:23 PM 36.4270 -5.9430 North 423 487 32,000  Level FlightAware ADS-B
Sun 09:30:03 PM 36.5050 -5.9290 North 424 488 32,000  Level FlightAware ADS-B
Sun 09:30:48 PM 36.5930 -5.9130 North 425 489 32,000  Level FlightAware ADS-B
Sun 09:31:28 PM 36.6720 -5.8990 North 425 489 32,000  Level FlightAware ADS-B
Sun 09:32:13 PM 36.7590 -5.8830 North 425 489 32,000  Level FlightAware ADS-B
Sun 09:32:53 PM 36.8370 -5.8700 North 425 489 32,000  Level FlightAware ADS-B
Sun 09:33:33 PM 36.9160 -5.8540 North 426 490 32,000  Level FlightAware ADS-B
Sun 09:34:18 PM 37.0000 -5.8260 15° North 417 480 32,000  Level FlightAware ADS-B
Sun 09:34:58 PM 37.0770 -5.8010 15° North 416 479 32,000  Level FlightAware ADS-B
Sun 09:35:43 PM 37.1620 -5.7730 15° North 416 479 32,000  Level FlightAware ADS-B
Sun 09:36:23 PM 37.2380 -5.7480 15° North 415 478 32,000  Level FlightAware ADS-B
Sun 09:37:03 PM 37.3150 -5.7220 15° North 416 479 32,000  Level FlightAware ADS-B
Sun 09:37:48 PM 37.4000 -5.6940 15° North 416 479 32,000  Level FlightAware ADS-B
Sun 09:38:33 PM 37.4860 -5.6660 14° North 415 478 32,000 71 Level FlightAware ADS-B
Sun 09:39:13 PM 37.5610 -5.6410 15° North 414 476 32,100  Climbing FlightAware ADS-B
Sun 09:39:53 PM 37.6360 -5.6160 15° North 420 483 32,000 -71 Descending FlightAware ADS-B
Sun 09:40:38 PM 37.7200 -5.5880 15° North 418 481 32,000  Level FlightAware ADS-B
Sun 09:41:18 PM 37.7960 -5.5620 15° North 418 481 32,000  Level FlightAware ADS-B
Sun 09:41:58 PM 37.8690 -5.5370 15° North 419 482 32,000  Level FlightAware ADS-B
Sun 09:42:43 PM 37.9550 -5.5090 14° North 420 483 32,000  Level FlightAware ADS-B
Sun 09:43:23 PM 38.0310 -5.4830 15° North 420 483 32,000  Level FlightAware ADS-B
Sun 09:44:03 PM 38.1070 -5.4570 15° North 419 482 32,000  Level FlightAware ADS-B
Sun 09:44:48 PM 38.1900 -5.4290 15° North 419 482 32,000  Level FlightAware ADS-B
Sun 09:45:58 PM 38.3210 -5.3840 15° North 419 482 32,000  Level FlightAware ADS-B
Sun 09:46:53 PM 38.4260 -5.3480 15° North 420 483 32,000  Level FlightAware ADS-B
Sun 09:47:33 PM 38.5010 -5.3230 15° North 421 484 32,000  Level FlightAware ADS-B
Sun 09:48:18 PM 38.5850 -5.2930 16° North 422 486 32,000  Level FlightAware ADS-B
Sun 09:48:58 PM 38.6620 -5.2670 15° North 423 487 32,000  Level FlightAware ADS-B
Sun 09:49:43 PM 38.7470 -5.2380 15° North 422 486 32,000  Level FlightAware ADS-B
Sun 09:50:23 PM 38.8220 -5.2090 17° North 427 491 32,000  Level FlightAware ADS-B
Sun 09:51:03 PM 38.8920 -5.1590 29° Northeast 433 498 32,000  Level FlightAware ADS-B
Sun 09:51:48 PM 38.9700 -5.1010 30° Northeast 434 499 32,000 -141 Level FlightAware ADS-B
Sun 09:52:28 PM 39.0370 -5.0510 30° Northeast 429 494 31,800 -565 Descending FlightAware ADS-B
Sun 09:53:13 PM 39.1140 -4.9930 30° Northeast 438 504 31,200 -776 Descending FlightAware ADS-B
Sun 09:53:53 PM 39.1870 -4.9380 30° Northeast 450 518 30,700 -825 Descending FlightAware ADS-B
Sun 09:54:33 PM 39.2600 -4.8830 30° Northeast 452 520 30,100 -847 Descending FlightAware ADS-B
Sun 09:55:18 PM 39.3390 -4.8220 31° Northeast 455 524 29,500 -776 Descending FlightAware ADS-B
Sun 09:55:58 PM 39.4100 -4.7680 30° Northeast 456 525 29,000 -750 Descending FlightAware ADS-B
Sun 09:56:38 PM 39.4860 -4.7110 30° Northeast 453 521 28,500 -776 Descending FlightAware ADS-B
Sun 09:57:23 PM 39.5670 -4.6480 31° Northeast 456 525 27,900 -847 Descending FlightAware ADS-B
Sun 09:58:03 PM 39.6400 -4.5920 31° Northeast 455 524 27,300 -918 Descending FlightAware ADS-B
Sun 09:58:48 PM 39.7190 -4.5310 31° Northeast 448 516 26,600 -1,059 Descending FlightAware ADS-B
Sun 09:59:28 PM 39.7920 -4.4870 25° Northeast 426 490 25,800 -1,200 Descending FlightAware ADS-B
Sun 10:00:08 PM 39.8670 -4.4650 13° North 423 487 25,000 -1,200 Descending FlightAware ADS-B
Sun 10:00:53 PM 39.9580 -4.4370 13° North 419 482 24,100 -1,271 Descending FlightAware ADS-B
Sun 10:01:33 PM 40.0320 -4.4130 14° North 406 467 23,200 -1,482 Descending FlightAware ADS-B
Sun 10:02:18 PM 40.1100 -4.3880 14° North 389 448 22,000 -1,575 Descending FlightAware ADS-B
Sun 10:02:53 PM 40.1720 -4.3680 14° North 380 437 21,100 -1,500 Descending FlightAware ADS-B
Sun 10:03:38 PM 40.2470 -4.3450 13° North 380 437 20,000 -1,400 Descending FlightAware ADS-B
Sun 10:04:23 PM 40.3280 -4.3190 14° North 380 437 19,000 -1,129 Descending FlightAware ADS-B
Sun 10:05:03 PM 40.3960 -4.2980 13° North 376 433 18,400 -918 Descending FlightAware ADS-B
Sun 10:05:48 PM 40.4690 -4.2740 14° North 356 410 17,700 -847 Descending FlightAware ADS-B
Sun 10:06:28 PM 40.5310 -4.2540 14° North 330 380 17,200 -706 Descending FlightAware ADS-B
Sun 10:07:13 PM 40.5980 -4.2330 13° North 315 362 16,700 -635 Descending FlightAware ADS-B
Sun 10:07:53 PM 40.6540 -4.2140 14° North 313 360 16,300 -675 Descending FlightAware ADS-B
Sun 10:08:33 PM 40.7110 -4.1960 13° North 307 353 15,800 -764 Descending FlightAware ADS-B
Sun 10:08:48 PM 40.7300 -4.1860 22° Northeast 316 364 15,600 -1,000 Descending FlightAware ADS-B
Sun 10:09:03 PM 40.7470 -4.1660 42° Northeast 326 375 15,300 -1,091 Descending FlightAware ADS-B
Sun 10:09:43 PM 40.7780 -4.1000 58° Northeast 316 364 14,600 -1,271 Descending FlightAware ADS-B
Sun 10:10:28 PM 40.8110 -4.0280 59° Northeast 313 360 13,500 -1,341 Descending FlightAware ADS-B
Sun 10:11:08 PM 40.8410 -3.9620 59° Northeast 309 356 12,700 -1,341 Descending FlightAware ADS-B
Sun 10:11:53 PM 40.8750 -3.8890 58° Northeast 299 344 11,600 -1,129 Descending FlightAware ADS-B
Sun 10:12:33 PM 40.9030 -3.8260 60° Northeast 292 336 11,100 -450 Descending FlightAware ADS-B
Sun 10:13:13 PM 40.9310 -3.7660 58° Northeast 284 327 11,000 -71 Descending FlightAware ADS-B
Sun 10:13:58 PM 40.9620 -3.7020 57° Northeast 286 329 11,000 -494 Level FlightAware ADS-B
Sun 10:14:38 PM 40.9890 -3.6420 59° Northeast 266 306 10,300 -771 Descending FlightAware ADS-B
Sun 10:15:08 PM 40.9990 -3.6000 72° East 254 292 10,100 -343 Descending FlightAware ADS-B
Sun 10:15:13 PM 40.9970 -3.5900 105° East 249 287 10,100  Level FlightAware ADS-B
Sun 10:15:33 PM 40.9840 -3.5730 135° Southeast 227 261 10,100 -92 Level FlightAware ADS-B
Sun 10:16:18 PM 40.9390 -3.5620 170° South 202 232 10,000 -171 Descending FlightAware ADS-B
Sun 10:16:43 PM 40.9150 -3.5610 178° South 193 222 9,900 -545 Descending FlightAware ADS-B
Sun 10:17:13 PM 40.8910 -3.5610 180° South 191 220 9,500 -960 Descending FlightAware ADS-B
Sun 10:17:33 PM 40.8710 -3.5610 180° South 193 222 9,100 -436 Descending FlightAware ADS-B
Sun 10:18:08 PM 40.8440 -3.5610 180° South 193 222 9,100 -1,400 Level FlightAware ADS-B
Sun 10:18:33 PM 40.8160 -3.5610 180° South 191 220 7,700 -1,964 Descending FlightAware ADS-B
Sun 10:19:03 PM 40.7910 -3.5610 180° South 187 215 7,300 -1,000 Descending FlightAware ADS-B
Sun 10:19:33 PM 40.7630 -3.5610 180° South 186 214 6,700 -1,114 Descending FlightAware ADS-B
Sun 10:20:13 PM 40.7300 -3.5610 180° South 186 214 6,000 -1,015 Descending FlightAware ADS-B
Sun 10:20:38 PM 40.7100 -3.5600 178° South 185 213 5,600 -1,091 Descending FlightAware ADS-B
Sun 10:21:08 PM 40.6840 -3.5600 180° South 180 207 5,000 -1,000 Descending FlightAware ADS-B
Sun 10:21:38 PM 40.6610 -3.5600 180° South 159 183 4,600 -764 Descending FlightAware ADS-B
Sun 10:22:03 PM 40.6430 -3.5600 180° South 153 176 4,300 -873 Descending FlightAware ADS-B
Sun 10:22:33 PM 40.6220 -3.5600 180° South 147 169 3,800 -900 Descending FlightAware ADS-B
Sun 10:23:03 PM 40.6020 -3.5600 180° South 142 163 3,400 -764 Descending FlightAware ADS-B
Sun 10:23:28 PM 40.5860 -3.5600 180° South 142 163 3,100 -720 Descending FlightAware ADS-B
Sun 10:23:53 PM 40.5690 -3.5600 180° South 146 168 2,800 -800 Descending FlightAware ADS-B
Sun 10:24:28 PM 40.5440 -3.5600 180° South 145 167 2,300 -857 Descending FlightAware ADS-B

Login

Don't have an account? Register now (free) for customized features, flight alerts, and more!